createdAt,value
2018-11-20T00:01:13.363Z,100086.61
2018-11-20T00:04:20.645Z,100108.13
2018-11-20T00:07:22.692Z,100097.02
2018-11-20T00:10:24.827Z,100124.06
2018-11-20T00:13:34.572Z,100118.54
2018-11-20T00:16:39.559Z,100125.13
2018-11-20T00:19:49.239Z,100117.14
2018-11-20T00:22:53.749Z,100112.37
2018-11-20T00:29:05.473Z,100125.59
2018-11-20T00:32:13.328Z,100113.05
2018-11-20T00:35:23.048Z,100124.48
2018-11-20T00:38:30.738Z,100123.14
2018-11-20T00:45:00.305Z,100128.07
2018-11-20T00:48:03.256Z,100118.20
2018-11-20T00:51:15.173Z,100108.23
2018-11-20T00:54:15.802Z,100113.52
2018-11-20T00:57:07.606Z,100099.20
2018-11-20T01:00:18.166Z,100100.06
2018-11-20T01:03:20.741Z,100085.36
2018-11-20T01:06:30.546Z,100087.97
2018-11-20T01:09:33.029Z,100091.91
2018-11-20T01:12:42.744Z,100087.14
2018-11-20T01:15:44.754Z,100087.53
2018-11-20T01:18:54.492Z,100090.21
2018-11-20T01:21:55.142Z,100080.71
2018-11-20T01:25:04.896Z,100086.34
2018-11-20T01:28:10.309Z,100079.33
2018-11-20T01:31:20.051Z,100087.14
2018-11-20T01:34:22.671Z,100082.80
2018-11-20T01:37:32.473Z,100078.03
2018-11-20T01:40:37.192Z,100066.72
2018-11-20T01:43:44.994Z,100063.25
2018-11-20T01:46:49.524Z,100056.78
2018-11-20T01:49:57.244Z,100060.22
2018-11-20T01:52:59.853Z,100044.13
2018-11-20T01:56:09.662Z,100039.83
2018-11-20T01:59:18.323Z,100031.12
2018-11-20T02:02:30.024Z,100032.34
2018-11-20T02:05:37.853Z,100015.08
2018-11-20T02:08:49.575Z,100014.48
2018-11-20T02:11:40.153Z,100020.16
2018-11-20T02:14:49.883Z,100010.10
2018-11-20T02:17:55.292Z,100007.19
2018-11-20T02:21:18.066Z,99998.34
2018-11-20T02:24:14.555Z,99988.32
2018-11-20T02:27:24.391Z,99984.42
2018-11-20T02:30:27.069Z,99970.02
2018-11-20T02:33:36.841Z,99984.84
2018-11-20T02:36:39.857Z,99983.55
2018-11-20T02:39:50.328Z,99990.41
2018-11-20T02:42:50.037Z,99991.70
2018-11-20T02:45:59.762Z,99968.28
2018-11-20T02:49:08.302Z,99973.79
2018-11-20T02:52:18.095Z,99964.24
2018-11-20T02:55:12.684Z,99957.69
2018-11-20T02:58:52.778Z,99948.11
2018-11-20T03:02:07.210Z,99952.39
2018-11-20T03:05:09.361Z,99942.41
2018-11-20T03:08:19.103Z,99936.29
2018-11-20T03:11:21.494Z,99930.26
2018-11-20T03:14:20.763Z,99929.31
2018-11-20T03:17:25.522Z,99921.59
2018-11-20T03:20:32.518Z,99917.97
2018-11-20T03:23:33.019Z,99915.38
2018-11-20T03:26:40.854Z,99916.20
2018-11-20T03:30:03.021Z,99908.09
2018-11-20T03:32:57.332Z,99899.64
2018-11-20T03:36:07.096Z,99914.88
2018-11-20T03:39:12.399Z,99910.88
2018-11-20T03:42:22.130Z,99918.69
2018-11-20T03:45:23.975Z,99917.39
2018-11-20T03:48:36.111Z,99917.48
2018-11-20T03:51:36.276Z,99921.30
2018-11-20T03:54:46.021Z,99915.66
2018-11-20T03:57:51.173Z,99916.09
2018-11-20T04:01:00.868Z,99912.66
2018-11-20T04:04:06.239Z,99911.31
2018-11-20T04:07:16.048Z,99902.14
2018-11-20T04:10:17.927Z,99911.27
2018-11-20T04:13:28.636Z,99892.90
2018-11-20T04:16:31.538Z,99884.26
2018-11-20T04:19:39.232Z,99868.75
2018-11-20T04:22:42.075Z,99864.78
2018-11-20T04:25:53.849Z,99859.95
2018-11-20T04:29:00.085Z,99859.53
2018-11-20T04:32:29.440Z,99855.61
2018-11-20T04:35:31.710Z,99861.78
2018-11-20T04:38:33.806Z,99855.67
2018-11-20T04:41:35.857Z,99849.12
2018-11-20T04:44:45.558Z,99838.22
2018-11-20T04:47:42.528Z,99835.98
2018-11-20T04:50:52.238Z,99829.97
2018-11-20T04:53:54.891Z,99830.45
2018-11-20T04:57:04.607Z,99833.48
2018-11-20T05:00:07.170Z,99829.57
2018-11-20T05:03:16.916Z,99812.93
2018-11-20T05:06:19.479Z,99822.97
2018-11-20T05:09:30.319Z,99824.21
2018-11-20T05:12:28.894Z,99827.25
2018-11-20T05:15:50.590Z,99829.53
2018-11-20T05:19:03.411Z,99825.67
2018-11-20T05:22:04.005Z,99818.83
2018-11-20T05:25:13.861Z,99824.37
2018-11-20T05:28:05.245Z,99822.91
2018-11-20T05:31:28.198Z,99828.50
2018-11-20T05:34:24.578Z,99807.17
2018-11-20T05:37:34.346Z,99809.73
2018-11-20T05:40:37.037Z,99818.84
2018-11-20T05:43:46.764Z,99814.33
2018-11-20T05:46:43.050Z,99810.28
2018-11-20T05:49:46.824Z,99822.58
2018-11-20T05:52:46.652Z,99807.28
2018-11-20T05:55:49.371Z,99817.77
2018-11-20T05:58:59.190Z,99813.16
2018-11-20T06:02:02.045Z,99809.73
2018-11-20T06:05:11.777Z,99803.53
2018-11-20T06:08:13.683Z,99803.22
2018-11-20T06:11:23.592Z,99812.45
2018-11-20T06:14:26.332Z,99817.17
2018-11-20T06:17:36.250Z,99811.52
2018-11-20T06:20:41.235Z,99805.05
2018-11-20T06:23:49.527Z,99808.52
2018-11-20T06:26:51.286Z,99811.03
2018-11-20T06:30:01.010Z,99810.48
2018-11-20T06:33:09.327Z,99796.20
2018-11-20T06:36:19.055Z,99780.20
2018-11-20T06:39:20.864Z,99794.09
2018-11-20T06:42:32.560Z,99792.41
2018-11-20T06:45:32.806Z,99791.59
2018-11-20T06:48:44.720Z,99801.65
2018-11-20T06:51:41.295Z,99797.69
2018-11-20T06:54:49.051Z,99790.47
2018-11-20T06:57:51.064Z,99788.99
2018-11-20T07:01:00.800Z,99787.70
2018-11-20T07:04:09.283Z,99793.29
2018-11-20T07:07:19.111Z,99795.45
2018-11-20T07:10:27.168Z,99788.34
2018-11-20T07:13:45.120Z,99775.37
2018-11-20T07:16:48.045Z,99773.20
2018-11-20T07:19:58.640Z,99773.20
2018-11-20T07:23:09.108Z,99768.39
2018-11-20T07:26:16.896Z,99771.37
2018-11-20T07:29:21.382Z,99775.32
2018-11-20T07:32:28.491Z,99764.04
2018-11-20T07:35:31.069Z,99767.13
2018-11-20T07:38:40.790Z,99767.57
2018-11-20T07:41:43.479Z,99779.27
2018-11-20T07:44:53.225Z,99786.61
2018-11-20T07:47:55.841Z,99782.09
2018-11-20T07:50:50.432Z,99785.20
2018-11-20T07:54:00.243Z,99785.20
2018-11-20T07:57:04.944Z,99773.91
2018-11-20T08:00:12.019Z,99782.64
2018-11-20T08:03:08.284Z,99783.09
2018-11-20T08:06:16.092Z,99777.44
2018-11-20T08:09:14.165Z,99780.86
2018-11-20T08:12:25.889Z,99780.30
2018-11-20T08:15:25.439Z,99768.81
2018-11-20T08:18:37.759Z,99780.20
2018-11-20T08:21:45.104Z,99771.63
2018-11-20T08:24:47.103Z,99772.37
2018-11-20T08:27:56.933Z,99774.66
2018-11-20T08:31:03.644Z,99776.40
2018-11-20T08:34:10.809Z,99785.72
2018-11-20T08:37:10.168Z,99780.08
2018-11-20T08:40:19.857Z,99793.11
2018-11-20T08:43:29.619Z,99785.89
2018-11-20T08:46:31.529Z,99783.72
2018-11-20T08:49:41.267Z,99775.25
2018-11-20T08:52:43.693Z,99775.37
2018-11-20T08:55:56.146Z,99767.44
2018-11-20T08:59:03.167Z,99776.42
2018-11-20T09:02:05.425Z,99772.84
2018-11-20T09:05:15.112Z,99781.20
2018-11-20T09:08:24.848Z,99775.55
2018-11-20T09:11:34.577Z,99770.34
2018-11-20T09:14:37.310Z,99752.22
2018-11-20T09:17:47.074Z,99752.55
2018-11-20T09:20:48.708Z,99760.36
2018-11-20T09:23:53.149Z,99754.71
2018-11-20T09:27:00.914Z,99748.56
2018-11-20T09:30:10.625Z,99741.39
2018-11-20T09:33:12.912Z,99742.25
2018-11-20T09:36:22.577Z,99744.05
2018-11-20T09:39:18.918Z,99739.84
2018-11-20T09:42:28.708Z,99743.50
2018-11-20T09:45:55.415Z,99741.26
2018-11-20T09:48:53.542Z,99740.66
2018-11-20T09:52:03.308Z,99751.33
2018-11-20T09:55:05.142Z,99749.77
2018-11-20T09:58:14.953Z,99740.64
2018-11-20T10:01:17.659Z,99745.43
2018-11-20T10:04:27.385Z,99743.48
2018-11-20T10:07:29.626Z,99742.94
2018-11-20T10:10:41.263Z,99735.04
2018-11-20T10:13:34.833Z,99742.98
2018-11-20T10:16:44.546Z,99745.98
2018-11-20T10:19:46.941Z,99746.09
2018-11-20T10:22:56.648Z,99742.08
2018-11-20T10:25:59.438Z,99736.78
2018-11-20T10:29:09.102Z,99730.16
2018-11-20T10:32:11.507Z,99736.59
2018-11-20T10:35:21.237Z,99736.86
2018-11-20T10:38:23.852Z,99730.52
2018-11-20T10:41:33.542Z,99723.73
2018-11-20T10:44:39.011Z,99720.32
2018-11-20T10:47:48.776Z,99717.27
2018-11-20T10:50:51.069Z,99715.05
2018-11-20T10:54:00.786Z,99718.30
2018-11-20T10:57:08.528Z,99706.20
2018-11-20T11:00:18.249Z,99705.64
2018-11-20T11:03:20.865Z,99703.17
2018-11-20T11:06:30.739Z,99704.95
2018-11-20T11:09:20.735Z,99702.78
2018-11-20T11:12:30.479Z,99699.60
2018-11-20T11:15:37.148Z,99687.50
2018-11-20T11:18:36.708Z,99685.19
2018-11-20T11:24:49.086Z,99675.48
2018-11-20T11:27:58.920Z,99663.92
2018-11-20T11:31:00.541Z,99662.73
2018-11-20T11:34:10.259Z,99659.13
2018-11-20T11:37:15.193Z,99669.86
2018-11-20T11:40:15.473Z,99656.47
2018-11-20T11:43:17.608Z,99654.63
2018-11-20T11:46:27.404Z,99650.74
2018-11-20T11:49:29.833Z,99654.58
2018-11-20T11:52:39.564Z,99632.69
2018-11-20T11:55:41.783Z,99649.48
2018-11-20T11:58:51.496Z,99652.45
2018-11-20T12:05:03.244Z,99645.64
2018-11-20T12:08:15.903Z,99646.87
2018-11-20T12:11:25.663Z,99650.06
2018-11-20T12:14:27.900Z,99646.65
2018-11-20T12:17:37.718Z,99651.12
2018-11-20T12:20:43.307Z,99651.06
2018-11-20T12:23:49.212Z,99641.55
2018-11-20T12:26:51.944Z,99640.69
2018-11-20T12:30:01.672Z,99642.23
2018-11-20T12:33:06.694Z,99639.54
2018-11-20T12:36:14.222Z,99641.34
2018-11-20T12:39:15.738Z,99638.23
2018-11-20T12:42:25.470Z,99643.03
2018-11-20T12:45:27.995Z,99643.98
2018-11-20T12:48:40.349Z,99641.38
2018-11-20T12:51:38.627Z,99624.33
2018-11-20T12:54:48.496Z,99623.89
2018-11-20T12:57:58.445Z,99624.12
2018-11-20T13:01:03.381Z,99623.81
2018-11-20T13:04:10.229Z,99630.99
2018-11-20T13:07:15.484Z,99639.23
2018-11-20T13:10:22.617Z,99620.26
2018-11-20T13:13:25.185Z,99624.53
2018-11-20T13:19:57.437Z,99637.44
2018-11-20T13:23:07.183Z,99629.69
2018-11-20T13:26:09.723Z,99639.60
2018-11-20T13:29:19.487Z,99639.12
2018-11-20T13:32:21.190Z,99641.65
2018-11-20T13:35:30.957Z,99642.87
2018-11-20T13:38:25.400Z,99629.70
2018-11-20T13:41:54.784Z,99634.42
2018-11-20T13:45:03.649Z,99633.46
2018-11-20T13:48:03.912Z,99638.53
2018-11-20T13:51:13.646Z,99639.28
2018-11-20T13:54:35.314Z,99637.15
2018-11-20T13:57:46.058Z,99645.50
2018-11-20T14:00:48.718Z,99641.23
2018-11-20T14:07:07.270Z,99617.73
2018-11-20T14:10:06.659Z,99619.13
2018-11-20T14:13:16.627Z,99610.85
2018-11-20T14:16:10.961Z,99617.82
2018-11-20T14:19:20.678Z,99618.74
2018-11-20T14:22:23.018Z,99613.04
2018-11-20T14:25:51.653Z,99605.20
2018-11-20T14:28:56.370Z,99597.95
2018-11-20T14:32:05.765Z,99602.31
2018-11-20T14:35:12.824Z,99590.87
2018-11-20T14:38:22.561Z,99589.03
2018-11-20T14:41:32.381Z,99580.55
2018-11-20T14:44:34.405Z,99562.73
2018-11-20T14:47:44.201Z,99577.16
2018-11-20T14:50:46.822Z,99583.96
2018-11-20T14:53:56.895Z,99578.66
2018-11-20T14:57:01.772Z,99572.66
2018-11-20T15:00:11.520Z,99564.27
2018-11-20T15:03:18.953Z,99567.39
2018-11-20T15:06:28.760Z,99562.23
2018-11-20T15:09:29.361Z,99572.06
2018-11-20T15:12:39.121Z,99562.94
2018-11-20T15:15:42.518Z,99563.11
2018-11-20T15:18:52.271Z,99564.39
2018-11-20T15:22:02.604Z,99561.63
2018-11-20T15:25:09.660Z,99560.17
2018-11-20T15:28:12.105Z,99578.23
2018-11-20T15:31:13.942Z,99573.00
2018-11-20T15:34:23.720Z,99572.92
2018-11-20T15:37:28.677Z,99580.46
2018-11-20T15:40:38.474Z,99582.87
2018-11-20T15:43:42.424Z,99587.61
2018-11-20T15:46:52.234Z,99593.95
2018-11-20T15:49:54.451Z,99606.77
2018-11-20T15:53:04.214Z,99603.68
2018-11-20T15:56:12.067Z,99615.27
2018-11-20T15:59:21.833Z,99614.63
2018-11-20T16:02:24.610Z,99611.46
2018-11-20T16:05:34.388Z,99616.05
2018-11-20T16:08:36.997Z,99624.02
2018-11-20T16:11:46.740Z,99620.02
2018-11-20T16:14:56.505Z,99628.13
2018-11-20T16:17:59.949Z,99619.26
2018-11-20T16:21:01.661Z,99627.55
2018-11-20T16:24:11.454Z,99631.14
2018-11-20T16:27:14.292Z,99622.42
2018-11-20T16:30:24.555Z,99622.63
2018-11-20T16:33:28.691Z,99623.62
2018-11-20T16:36:36.329Z,99635.13
2018-11-20T16:39:38.317Z,99628.55
2018-11-20T16:42:48.137Z,99623.85
2018-11-20T16:45:50.494Z,99636.59
2018-11-20T16:49:00.336Z,99632.73
2018-11-20T16:52:02.435Z,99636.25
2018-11-20T16:55:12.190Z,99640.02
2018-11-20T16:58:21.985Z,99644.89
2018-11-20T17:01:31.948Z,99645.20
2018-11-20T17:04:44.256Z,99640.49
2018-11-20T17:07:44.198Z,99644.88
2018-11-20T17:14:21.277Z,99648.49
2018-11-20T17:17:25.440Z,99651.05
2018-11-20T17:20:28.204Z,99647.48
2018-11-20T17:23:21.435Z,99647.96
2018-11-20T17:26:31.191Z,99649.53
2018-11-20T17:29:30.382Z,99645.20
2018-11-20T17:32:40.099Z,99636.22
2018-11-20T17:35:45.075Z,99629.27
2018-11-20T17:38:33.363Z,99624.72
2018-11-20T17:41:35.877Z,99622.38
2018-11-20T17:44:45.602Z,99619.91
2018-11-20T17:47:50.604Z,99624.78
2018-11-20T17:50:57.520Z,99614.27
2018-11-20T17:53:59.369Z,99607.75
2018-11-20T17:57:11.899Z,99604.61
2018-11-20T18:00:11.816Z,99602.66
2018-11-20T18:03:21.583Z,99601.64
2018-11-20T18:06:16.270Z,99614.31
2018-11-20T18:09:31.077Z,99613.78
2018-11-20T18:12:30.461Z,99631.16
2018-11-20T18:15:40.204Z,99645.47
2018-11-20T18:19:08.823Z,99656.48
2018-11-20T18:22:15.990Z,99646.56
2018-11-20T18:25:38.020Z,99661.67
2018-11-20T18:28:47.824Z,99657.34
2018-11-20T18:31:50.889Z,99662.72
2018-11-20T18:34:51.789Z,99673.48
2018-11-20T18:38:01.584Z,99674.63
2018-11-20T18:41:07.033Z,99665.47
2018-11-20T18:44:17.496Z,99673.93
2018-11-20T18:47:16.098Z,99664.39
2018-11-20T18:50:27.753Z,99659.79
2018-11-20T18:53:27.918Z,99644.87
2018-11-20T18:56:40.551Z,99628.45
2018-11-20T18:59:47.580Z,99620.09
2018-11-20T19:02:51.978Z,99600.04
2018-11-20T19:05:59.492Z,99589.16
2018-11-20T19:09:02.140Z,99594.38
2018-11-20T19:12:11.912Z,99606.34
2018-11-20T19:15:14.553Z,99630.50
2018-11-20T19:18:25.419Z,99630.57
2018-11-20T19:21:27.413Z,99637.19
2018-11-20T19:24:37.241Z,99631.38
2018-11-20T19:27:39.146Z,99652.31
2018-11-20T19:30:49.273Z,99671.66
2018-11-20T19:33:51.994Z,99678.92
2018-11-20T19:37:03.720Z,99683.85
2018-11-20T19:40:06.963Z,99678.16
2018-11-20T19:43:14.091Z,99680.21
2018-11-20T19:46:13.261Z,99674.68
2018-11-20T19:49:23.037Z,99671.87
2018-11-20T19:52:25.497Z,99675.82
2018-11-20T19:55:28.487Z,99672.56
2018-11-20T19:58:32.861Z,99676.78
2018-11-20T20:01:43.799Z,99690.30
2018-11-20T20:04:51.984Z,99702.55
2018-11-20T20:07:58.986Z,99705.43
2018-11-20T20:10:54.131Z,99703.30
2018-11-20T20:14:06.569Z,99705.79
2018-11-20T20:17:06.542Z,99721.42
2018-11-20T20:20:16.420Z,99722.02
2018-11-20T20:23:18.677Z,99731.14
2018-11-20T20:26:24.858Z,99737.38
2018-11-20T20:29:24.977Z,99742.89
2018-11-20T20:32:18.684Z,99737.84
2018-11-20T20:35:25.975Z,99739.09
2018-11-20T20:38:38.491Z,99751.69
2018-11-20T20:41:37.896Z,99744.94
2018-11-20T20:44:47.653Z,99741.20
2018-11-20T20:48:09.805Z,99733.73
2018-11-20T20:51:19.835Z,99725.00
2018-11-20T20:54:22.385Z,99739.14
2018-11-20T20:57:34.269Z,99722.77
2018-11-20T21:00:34.919Z,99728.34
2018-11-20T21:03:39.350Z,99716.30
2018-11-20T21:06:41.586Z,99717.66
2018-11-20T21:09:51.408Z,99722.91
2018-11-20T21:12:56.191Z,99736.84
2018-11-20T21:16:05.964Z,99733.86
2018-11-20T21:19:15.709Z,99733.09
2018-11-20T21:22:23.216Z,99748.45
2018-11-20T21:25:31.020Z,99748.11
2018-11-20T21:28:32.958Z,99756.59
2018-11-20T21:31:42.731Z,99758.73
2018-11-20T21:34:47.975Z,99761.04
2018-11-20T21:37:57.819Z,99757.72
2018-11-20T21:41:00.383Z,99756.41
2018-11-20T21:44:12.331Z,99758.48
2018-11-20T21:47:18.808Z,99753.81
2018-11-20T21:50:20.986Z,99750.40
2018-11-20T21:53:30.810Z,99761.95
2018-11-20T21:56:32.052Z,99777.27
2018-11-20T22:00:02.911Z,99790.69
2018-11-20T22:03:05.419Z,99792.48
2018-11-20T22:06:13.892Z,99793.44
2018-11-20T22:09:18.308Z,99792.81
2018-11-20T22:12:25.629Z,99809.94
2018-11-20T22:15:25.865Z,99816.06
2018-11-20T22:18:33.690Z,99809.33
2018-11-20T22:21:36.279Z,99809.47
2018-11-20T22:24:46.027Z,99832.48
2018-11-20T22:27:50.897Z,99834.34
2018-11-20T22:31:00.668Z,99838.33
2018-11-20T22:33:55.801Z,99840.28
2018-11-20T22:37:10.102Z,99858.56
2018-11-20T22:40:07.731Z,99844.66
2018-11-20T22:43:19.317Z,99833.39
2018-11-20T22:46:22.445Z,99840.28
2018-11-20T22:49:32.265Z,99840.77
2018-11-20T22:52:34.872Z,99838.11
2018-11-20T22:55:46.287Z,99848.65
2018-11-20T22:58:38.351Z,99848.95
2018-11-20T23:01:48.099Z,99855.14
2018-11-20T23:04:55.052Z,99852.19
2018-11-20T23:08:10.362Z,99855.35
2018-11-20T23:10:51.579Z,99854.58
2018-11-20T23:13:42.845Z,99853.75
2018-11-20T23:16:48.384Z,99858.52
2018-11-20T23:19:39.631Z,99854.30
2018-11-20T23:22:23.166Z,99862.58
2018-11-20T23:25:18.120Z,99861.94
2018-11-20T23:27:59.095Z,99849.50
2018-11-20T23:30:50.387Z,99856.59
2018-11-20T23:33:34.323Z,99853.55
2018-11-20T23:36:25.522Z,99862.85
2018-11-20T23:39:10.809Z,99858.44
2018-11-20T23:42:02.026Z,99868.09
2018-11-20T23:44:45.315Z,99862.81
2018-11-20T23:47:36.842Z,99852.06
2018-11-20T23:50:23.210Z,99848.13
2018-11-20T23:53:11.890Z,99858.13
2018-11-20T23:55:54.681Z,99857.06
2018-11-20T23:58:35.890Z,99854.42
